Cruzeiro Do Canal — CSVG — position and weather

sailwx.info

Track history (hours):
 
Tides and Currents Weather Stations Pressure Air Temp Water Temp Dewpoint Dewpoint Depression Visibility Wind Speed Wind Dir Waves Ship Positions

Cruzeiro Do Canal

Last reported at 2016-Aug-27 22:30 UTC. Time now 2016-Aug-29 23:33 UTC.
Position N 38°32' W 028°37'.

Length 32 m; draft 2.3 m.

Type: Passenger vessel. MMSI: 204701250.

Date/timePositionNaut miles runAvg speedWind from/ knotsBaromVisibWave heightAir tempDewpointWater temp
2016-Aug-27 22:30N 38°32' W 028°37'9 9.3
2016-Aug-27 21:33N 38°36' W 028°27'1212.4
2016-Aug-27 20:34N 38°40' W 028°12'7 7.2
2016-Aug-27 19:34N 38°37' W 028°21'1010.0
2016-Aug-27 18:33N 38°32' W 028°32'4 4.3
2016-Aug-27 17:33N 38°32' W 028°37'0 0.0
2016-Aug-27 16:33N 38°32' W 028°37'0 0.0
2016-Aug-27 15:33N 38°32' W 028°37'0 0.0
2016-Aug-27 14:33N 38°32' W 028°37'0 0.0
2016-Aug-27 13:33N 38°32' W 028°37'0 0.0
2016-Aug-27 12:33N 38°32' W 028°37'4 4.2
2016-Aug-27 11:33N 38°33' W 028°32'1211.6
2016-Aug-27 10:33N 38°39' W 028°19'5 4.9
2016-Aug-27 09:33N 38°40' W 028°13'1211.9
2016-Aug-27 08:33N 38°35' W 028°27'8 8.4
2016-Aug-27 07:33N 38°32' W 028°37'  
2016-Aug-23 22:19N 38°32' W 028°37'811.3
2016-Aug-23 21:34N 38°36' W 028°27'1212.4
2016-Aug-23 20:33N 38°40' W 028°12'8 8.0
2016-Aug-23 19:33N 38°36' W 028°21'9 9.2
2016-Aug-23 18:33N 38°32' W 028°32'4 4.3
2016-Aug-23 17:33N 38°32' W 028°37'0 0.0
2016-Aug-23 16:33N 38°32' W 028°37'0 0.0
2016-Aug-23 15:33N 38°32' W 028°37'0 0.0
2016-Aug-23 14:34N 38°32' W 028°37'0 0.0
2016-Aug-23 13:33N 38°32' W 028°37'0 0.0
2016-Aug-23 12:33N 38°32' W 028°37'4 4.2
2016-Aug-23 11:33N 38°32' W 028°32'1111.3
2016-Aug-23 10:34N 38°38' W 028°20'6 5.8
2016-Aug-23 09:33N 38°40' W 028°13'1212.2
2016-Aug-23 08:33N 38°35' W 028°27'9 8.6
2016-Aug-23 07:33N 38°32' W 028°37'  
2016-Aug-20 22:30N 38°32' W 028°37'9 9.0
2016-Aug-20 21:33N 38°36' W 028°27'1212.3
2016-Aug-20 20:34N 38°40' W 028°13'7 7.0
2016-Aug-20 19:33N 38°37' W 028°21'1010.1
2016-Aug-20 18:34N 38°32' W 028°32'4 4.3
2016-Aug-20 17:34N 38°32' W 028°37'0 0.0
2016-Aug-20 16:33N 38°32' W 028°37'0 0.0
2016-Aug-20 15:33N 38°32' W 028°37'0 0.0
2016-Aug-20 14:33N 38°32' W 028°37'0 0.0
2016-Aug-20 13:33N 38°32' W 028°37'0 0.0
2016-Aug-20 12:33N 38°32' W 028°37'4 4.2
2016-Aug-20 11:34N 38°32' W 028°32'1111.1
2016-Aug-20 10:33N 38°38' W 028°20'6 5.7
2016-Aug-20 09:33N 38°40' W 028°13'1211.9
2016-Aug-20 08:33N 38°36' W 028°27'9 8.6
2016-Aug-20 07:34N 38°32' W 028°37'  
Track history (hours):
 
Tides and Currents Weather Stations Pressure Air Temp Water Temp Dewpoint Dewpoint Depression Visibility Wind Speed Wind Dir Waves Ship Positions

Cruzeiro Do Canal

Last reported at 2016-Aug-27 22:30 UTC. Time now 2016-Aug-29 23:33 UTC.
Position N 38°32' W 028°37'.

Length 32 m; draft 2.3 m.

Type: Passenger vessel. MMSI: 204701250.

Date/timePositionNaut miles runAvg speedWind from/ knotsBaromVisibWave heightAir tempDewpointWater temp
2016-Aug-27 22:30N 38°32' W 028°37'9 9.3
2016-Aug-27 21:33N 38°36' W 028°27'1212.4
2016-Aug-27 20:34N 38°40' W 028°12'7 7.2
2016-Aug-27 19:34N 38°37' W 028°21'1010.0
2016-Aug-27 18:33N 38°32' W 028°32'4 4.3
2016-Aug-27 17:33N 38°32' W 028°37'0 0.0
2016-Aug-27 16:33N 38°32' W 028°37'0 0.0
2016-Aug-27 15:33N 38°32' W 028°37'0 0.0
2016-Aug-27 14:33N 38°32' W 028°37'0 0.0
2016-Aug-27 13:33N 38°32' W 028°37'0 0.0
2016-Aug-27 12:33N 38°32' W 028°37'4 4.2
2016-Aug-27 11:33N 38°33' W 028°32'1211.6
2016-Aug-27 10:33N 38°39' W 028°19'5 4.9
2016-Aug-27 09:33N 38°40' W 028°13'1211.9
2016-Aug-27 08:33N 38°35' W 028°27'8 8.4
2016-Aug-27 07:33N 38°32' W 028°37'  
2016-Aug-23 22:19N 38°32' W 028°37'811.3
2016-Aug-23 21:34N 38°36' W 028°27'1212.4
2016-Aug-23 20:33N 38°40' W 028°12'8 8.0
2016-Aug-23 19:33N 38°36' W 028°21'9 9.2
2016-Aug-23 18:33N 38°32' W 028°32'4 4.3
2016-Aug-23 17:33N 38°32' W 028°37'0 0.0
2016-Aug-23 16:33N 38°32' W 028°37'0 0.0
2016-Aug-23 15:33N 38°32' W 028°37'0 0.0
2016-Aug-23 14:34N 38°32' W 028°37'0 0.0
2016-Aug-23 13:33N 38°32' W 028°37'0 0.0
2016-Aug-23 12:33N 38°32' W 028°37'4 4.2
2016-Aug-23 11:33N 38°32' W 028°32'1111.3
2016-Aug-23 10:34N 38°38' W 028°20'6 5.8
2016-Aug-23 09:33N 38°40' W 028°13'1212.2
2016-Aug-23 08:33N 38°35' W 028°27'9 8.6
2016-Aug-23 07:33N 38°32' W 028°37'  
2016-Aug-20 22:30N 38°32' W 028°37'9 9.0
2016-Aug-20 21:33N 38°36' W 028°27'1212.3
2016-Aug-20 20:34N 38°40' W 028°13'7 7.0
2016-Aug-20 19:33N 38°37' W 028°21'1010.1
2016-Aug-20 18:34N 38°32' W 028°32'4 4.3
2016-Aug-20 17:34N 38°32' W 028°37'0 0.0
2016-Aug-20 16:33N 38°32' W 028°37'0 0.0
2016-Aug-20 15:33N 38°32' W 028°37'0 0.0
2016-Aug-20 14:33N 38°32' W 028°37'0 0.0
2016-Aug-20 13:33N 38°32' W 028°37'0 0.0
2016-Aug-20 12:33N 38°32' W 028°37'4 4.2
2016-Aug-20 11:34N 38°32' W 028°32'1111.1
2016-Aug-20 10:33N 38°38' W 028°20'6 5.7
2016-Aug-20 09:33N 38°40' W 028°13'1211.9
2016-Aug-20 08:33N 38°36' W 028°27'9 8.6
2016-Aug-20 07:34N 38°32' W 028°37'  

Dump ship's entire track history